Time;durP1;ratioP1;P1;durP2;ratioP2;P2;SDS_P1;SDS_P2;PMS_P1;PMS_P2;Temp;Humidity;BMP_temperature;BMP_pressure;BME280_temperature;BME280_humidity;BME280_pressure;Samples;Min_cycle;Max_cycle;Signal;HPM_P1;HPM_P2
2022/03/16 00:02:19;;;;;;;9.93;6.73;;;;;;;5.51;79.30;99679.91;5136668;27;38850;-77
2022/03/16 00:04:49;;;;;;;9.47;7.00;;;;;;;5.47;78.96;99688.78;5114656;27;43178;-77
2022/03/16 00:07:17;;;;;;;10.17;6.90;;;;;;;5.43;79.15;99700.28;5115669;27;43297;-78
2022/03/16 00:09:52;;;;;;;10.27;7.10;;;;;;;5.30;79.09;99687.50;5128641;27;20687;-78
2022/03/16 00:12:20;;;;;;;14.37;9.83;;;;;;;5.32;79.01;99705.81;5115479;27;39142;-78
2022/03/16 00:14:48;;;;;;;11.03;7.70;;;;;;;5.24;79.06;99708.66;5098318;27;41709;-78
2022/03/16 00:17:16;;;;;;;9.23;7.17;;;;;;;5.22;79.14;99715.72;5149501;27;43786;-78
2022/03/16 00:19:45;;;;;;;11.80;8.13;;;;;;;5.18;78.88;99715.88;5135868;27;42971;-78
2022/03/16 00:22:14;;;;;;;9.37;6.67;;;;;;;5.13;78.97;99704.59;5136242;27;40752;-79
2022/03/16 00:24:41;;;;;;;9.93;7.27;;;;;;;5.10;78.69;99708.16;5135879;27;40678;-78
2022/03/16 00:27:08;;;;;;;9.63;6.70;;;;;;;5.07;78.57;99712.66;5115635;27;42971;-78
2022/03/16 00:29:36;;;;;;;11.20;8.40;;;;;;;5.03;79.92;99704.00;5097776;27;41044;-78
2022/03/16 00:32:05;;;;;;;12.07;8.37;;;;;;;4.98;80.16;99706.75;5115609;27;42063;-78
2022/03/16 00:34:32;;;;;;;10.90;8.07;;;;;;;4.88;79.71;99699.16;5115048;27;41044;-77
2022/03/16 00:37:00;;;;;;;11.70;7.87;;;;;;;4.86;79.46;99696.56;5115458;27;43712;-78
2022/03/16 00:39:29;;;;;;;10.77;7.00;;;;;;;4.80;79.37;99690.63;5097688;27;41143;-78
2022/03/16 00:41:57;;;;;;;11.80;7.77;;;;;;;4.83;79.50;99701.00;5131784;27;38847;-78
2022/03/16 00:44:25;;;;;;;12.70;8.87;;;;;;;4.83;79.09;99712.38;5135457;27;42008;-78
2022/03/16 00:46:53;;;;;;;11.67;7.07;;;;;;;4.82;79.77;99717.69;5132313;27;42849;-78
2022/03/16 00:49:20;;;;;;;10.40;6.87;;;;;;;4.80;80.35;99706.38;5156260;27;42247;-78
2022/03/16 00:51:48;;;;;;;12.27;8.70;;;;;;;4.77;80.20;99711.69;5155870;27;40304;-78
2022/03/16 00:54:16;;;;;;;11.37;7.90;;;;;;;4.73;80.80;99707.41;5172810;27;41770;-78
2022/03/16 00:56:45;;;;;;;10.70;7.70;;;;;;;4.70;79.98;99714.44;5139304;27;41850;-79
2022/03/16 00:59:13;;;;;;;10.17;7.30;;;;;;;4.66;79.83;99709.34;5154914;27;42352;-78
2022/03/16 01:01:40;;;;;;;9.13;6.77;;;;;;;4.63;79.76;99712.88;5139358;27;38743;-77
2022/03/16 01:04:08;;;;;;;13.00;8.07;;;;;;;4.59;79.77;99716.47;5138364;27;43536;-78
2022/03/16 01:06:35;;;;;;;11.93;8.33;;;;;;;4.55;79.36;99709.59;5138769;27;41858;-78
2022/03/16 01:09:03;;;;;;;15.10;9.93;;;;;;;4.53;79.26;99702.66;5138520;27;41159;-78
2022/03/16 01:11:30;;;;;;;9.37;6.90;;;;;;;4.49;79.61;99701.88;5156605;27;41048;-77
2022/03/16 01:14:02;;;;;;;8.77;5.80;;;;;;;4.46;79.44;99701.94;5173190;27;40824;-78
2022/03/16 01:16:29;;;;;;;8.17;6.07;;;;;;;4.42;79.10;99705.56;5174994;27;42657;-79
2022/03/16 01:18:57;;;;;;;6.73;5.93;;;;;;;4.39;79.73;99700.38;5138215;27;41435;-78
2022/03/16 01:21:24;;;;;;;9.80;7.23;;;;;;;4.37;80.73;99704.78;5138096;27;39875;-78
2022/03/16 01:23:52;;;;;;;10.57;7.43;;;;;;;4.29;80.18;99694.50;5138105;27;40836;-78
2022/03/16 01:26:19;;;;;;;12.87;8.37;;;;;;;4.30;80.08;99704.09;5138800;27;42499;-79
2022/03/16 01:28:47;;;;;;;12.17;8.50;;;;;;;4.27;79.96;99701.53;5174542;27;42823;-77
2022/03/16 01:31:19;;;;;;;9.83;7.80;;;;;;;4.24;80.15;99705.97;5138538;27;40804;-78
2022/03/16 01:33:46;;;;;;;11.33;7.50;;;;;;;4.21;80.15;99703.41;5143779;27;41738;-78
2022/03/16 01:36:16;;;;;;;9.67;6.97;;;;;;;4.18;79.73;99712.25;5114713;27;43717;-79
2022/03/16 01:38:43;;;;;;;13.73;8.73;;;;;;;4.12;79.63;99706.25;5131452;27;41349;-77
2022/03/16 01:41:11;;;;;;;11.33;8.23;;;;;;;4.10;79.70;99708.91;5114308;27;39796;-78
2022/03/16 01:43:39;;;;;;;12.43;7.93;;;;;;;4.06;79.69;99707.28;5096654;27;41823;-77
2022/03/16 01:46:07;;;;;;;10.50;7.43;;;;;;;4.06;79.79;99703.78;5148661;27;43747;-78
2022/03/16 01:48:36;;;;;;;8.70;6.53;;;;;;;4.04;79.85;99700.34;5135765;27;43134;-77
2022/03/16 01:51:04;;;;;;;12.03;7.37;;;;;;;4.02;80.93;99697.75;5134465;27;40538;-78
2022/03/16 01:53:32;;;;;;;12.60;7.60;;;;;;;4.01;80.64;99692.53;5151810;27;41016;-78
2022/03/16 01:56:00;;;;;;;9.00;6.53;;;;;;;4.00;80.46;99701.28;5121963;27;42762;-77
2022/03/16 01:58:27;;;;;;;12.87;8.00;;;;;;;3.96;80.25;99696.13;5137800;27;41204;-78
2022/03/16 02:01:00;;;;;;;9.17;6.37;;;;;;;3.83;80.23;99681.56;5138184;27;39643;-78
2022/03/16 02:03:28;;;;;;;11.40;7.03;;;;;;;3.92;80.34;99701.47;5137735;27;40265;-78
2022/03/16 02:05:57;;;;;;;12.07;7.67;;;;;;;3.90;81.25;99700.63;5137776;27;42019;-77
2022/03/16 02:08:25;;;;;;;10.13;6.83;;;;;;;3.87;80.57;99706.81;5154891;27;42483;-78
2022/03/16 02:10:52;;;;;;;11.63;8.07;;;;;;;3.84;80.20;99708.63;5154242;27;39582;-78
2022/03/16 02:13:20;;;;;;;9.80;6.63;;;;;;;3.80;80.20;99715.72;5173836;27;42034;-78
2022/03/16 02:15:48;;;;;;;9.60;6.37;;;;;;;3.71;80.19;99710.63;5154872;27;42746;-78
2022/03/16 02:18:15;;;;;;;9.20;6.70;;;;;;;3.72;80.08;99722.84;5154934;27;41802;-78
2022/03/16 02:20:43;;;;;;;8.27;6.17;;;;;;;3.57;79.92;99708.34;5154267;27;39353;-77
2022/03/16 02:23:12;;;;;;;10.70;7.20;;;;;;;3.68;80.53;99725.59;5173118;27;41473;-77
2022/03/16 02:25:50;;;;;;;10.87;7.13;;;;;;;3.75;80.17;99728.03;5173518;27;42753;-77
2022/03/16 02:28:18;;;;;;;9.83;7.43;;;;;;;3.72;80.03;99721.97;5154685;27;41315;-77
2022/03/16 02:30:46;;;;;;;10.43;7.83;;;;;;;3.87;80.22;99733.00;5154891;27;38838;-77
2022/03/16 02:33:14;;;;;;;8.93;6.33;;;;;;;3.88;79.88;99734.72;5154908;27;42798;-78
2022/03/16 02:35:42;;;;;;;9.50;6.07;;;;;;;3.88;80.10;99739.13;5173434;27;43494;-78
2022/03/16 02:38:09;;;;;;;10.03;6.80;;;;;;;3.86;80.42;99741.75;5154917;27;42009;-78
2022/03/16 02:40:39;;;;;;;9.70;7.33;;;;;;;3.85;80.75;99734.78;5154866;27;40966;-78
2022/03/16 02:43:06;;;;;;;9.23;7.13;;;;;;;3.87;80.55;99753.97;5137477;27;41148;-78
2022/03/16 02:45:34;;;;;;;7.13;5.67;;;;;;;3.89;80.55;99757.44;5154810;27;41663;-78
2022/03/16 02:48:02;;;;;;;6.77;5.20;;;;;;;3.95;80.08;99762.56;5154685;27;42678;-78
2022/03/16 02:50:29;;;;;;;10.00;6.93;;;;;;;3.98;80.45;99767.72;5137316;27;39065;-77
2022/03/16 02:52:57;;;;;;;8.97;6.50;;;;;;;4.03;80.66;99769.38;5135116;27;40680;-78
2022/03/16 02:55:25;;;;;;;8.60;6.80;;;;;;;4.03;80.68;99770.25;5152259;27;42825;-78
2022/03/16 02:57:54;;;;;;;6.77;5.57;;;;;;;4.03;80.61;99758.88;5151269;27;40989;-78
2022/03/16 03:00:26;;;;;;;6.57;4.93;;;;;;;4.00;80.53;99777.28;5133601;27;40874;-77
2022/03/16 03:02:54;;;;;;;5.00;4.50;;;;;;;3.97;80.14;99776.47;5148193;27;41506;-78
2022/03/16 03:05:22;;;;;;;6.20;4.63;;;;;;;3.95;79.99;99783.53;5150996;27;44392;-78
2022/03/16 03:07:49;;;;;;;4.90;4.43;;;;;;;3.92;79.89;99778.34;5154109;27;41928;-77
2022/03/16 03:10:17;;;;;;;4.87;4.27;;;;;;;3.85;80.01;99774.09;5136777;27;42171;-78
2022/03/16 03:12:45;;;;;;;6.07;4.60;;;;;;;3.87;79.82;99780.19;5173214;27;41696;-77
2022/03/16 03:15:15;;;;;;;7.07;5.43;;;;;;;3.88;80.15;99771.41;5173147;27;43742;-79
2022/03/16 03:17:49;;;;;;;6.27;4.97;;;;;;;3.88;80.22;99781.91;5154361;27;42362;-77
2022/03/16 03:20:16;;;;;;;5.63;4.90;;;;;;;3.89;80.22;99782.75;5172897;27;40869;-78
2022/03/16 03:22:44;;;;;;;5.63;4.60;;;;;;;3.88;80.10;99781.91;5154870;27;42215;-78
2022/03/16 03:25:14;;;;;;;7.17;5.33;;;;;;;3.93;80.06;99774.81;5140287;27;42784;-77
2022/03/16 03:27:42;;;;;;;6.70;4.67;;;;;;;3.94;80.23;99771.31;5157843;27;43360;-77
2022/03/16 03:30:11;;;;;;;5.47;4.23;;;;;;;3.95;80.07;99772.16;5157641;27;39211;-78
2022/03/16 03:32:40;;;;;;;4.57;4.07;;;;;;;3.98;79.95;99778.19;5140451;27;43043;-78
2022/03/16 03:35:09;;;;;;;4.97;4.30;;;;;;;4.01;79.89;99776.41;5140176;27;41804;-78
2022/03/16 03:37:37;;;;;;;4.53;4.03;;;;;;;4.03;79.73;99782.47;5158212;27;42301;-77
2022/03/16 03:40:06;;;;;;;4.23;3.47;;;;;;;4.04;79.76;99778.97;5176154;27;39742;-78
2022/03/16 03:42:34;;;;;;;4.60;4.07;;;;;;;4.02;79.97;99783.38;5156777;27;41938;-77
2022/03/16 03:45:02;;;;;;;4.60;4.20;;;;;;;3.88;79.89;99771.41;5151704;27;42972;-77
2022/03/16 03:47:29;;;;;;;4.83;4.10;;;;;;;3.86;79.89;99767.97;5119354;27;41053;-77
2022/03/16 03:49:59;;;;;;;4.37;3.73;;;;;;;3.98;79.73;99787.81;5155464;27;41124;-78
2022/03/16 03:52:27;;;;;;;4.27;3.83;;;;;;;3.90;79.66;99777.50;5136215;27;42174;-77
2022/03/16 03:54:54;;;;;;;4.20;3.67;;;;;;;3.94;79.79;99792.28;5153307;27;42189;-78
2022/03/16 03:57:22;;;;;;;4.47;4.07;;;;;;;3.88;79.81;99792.38;5155351;27;43219;-78
2022/03/16 03:59:50;;;;;;;5.03;4.43;;;;;;;3.87;79.80;99798.50;5155203;27;39989;-80
2022/03/16 04:02:17;;;;;;;4.97;3.83;;;;;;;3.87;79.52;99800.28;5136555;27;42842;-77
2022/03/16 04:04:45;;;;;;;4.30;3.70;;;;;;;3.88;79.34;99808.09;5134886;27;43401;-77
2022/03/16 04:07:14;;;;;;;4.07;3.67;;;;;;;3.90;79.54;99811.56;5171333;27;42243;-78
2022/03/16 04:09:41;;;;;;;4.77;4.30;;;;;;;3.90;79.61;99811.56;5136162;27;39379;-78
2022/03/16 04:12:10;;;;;;;4.33;3.93;;;;;;;3.90;79.54;99816.81;5136104;27;40736;-78
2022/03/16 04:14:38;;;;;;;4.93;3.87;;;;;;;3.93;79.21;99816.75;5136143;27;43149;-78
2022/03/16 04:17:06;;;;;;;4.47;3.70;;;;;;;3.96;79.42;99826.28;5139249;27;43445;-77
2022/03/16 04:19:33;;;;;;;5.77;4.50;;;;;;;4.00;79.09;99816.59;5175719;27;40833;-78
2022/03/16 04:22:01;;;;;;;4.57;4.03;;;;;;;4.02;79.17;99814.81;5139770;27;40669;-79
2022/03/16 04:24:30;;;;;;;4.63;3.87;;;;;;;4.05;79.07;99825.25;5175560;27;43025;-77
2022/03/16 04:26:58;;;;;;;5.23;4.47;;;;;;;4.06;78.92;99827.84;5139469;27;41271;-77
2022/03/16 04:29:25;;;;;;;5.23;4.60;;;;;;;4.06;78.86;99822.59;5175565;27;40072;-79
2022/03/16 04:31:53;;;;;;;5.00;4.20;;;;;;;4.09;78.50;99824.28;5156991;27;41542;-78
2022/03/16 04:34:20;;;;;;;6.47;5.30;;;;;;;4.10;78.88;99828.63;5174718;27;43779;-78
2022/03/16 04:36:48;;;;;;;4.73;4.00;;;;;;;4.10;78.62;99844.34;5175498;27;42306;-77
2022/03/16 04:39:16;;;;;;;6.17;4.80;;;;;;;4.09;78.80;99837.38;5175152;27;41042;-77
2022/03/16 04:41:46;;;;;;;5.63;4.37;;;;;;;4.09;78.92;99840.00;5139327;27;40712;-78
2022/03/16 04:44:13;;;;;;;6.40;4.93;;;;;;;4.11;78.72;99840.84;5175183;27;42630;-77
2022/03/16 04:46:41;;;;;;;6.63;4.77;;;;;;;4.12;78.76;99837.31;5156731;27;42630;-78
2022/03/16 04:49:08;;;;;;;5.90;4.13;;;;;;;4.13;78.60;99837.28;5175451;27;40082;-77
2022/03/16 04:51:36;;;;;;;7.70;5.70;;;;;;;4.13;78.79;99844.28;5156759;27;41631;-78
2022/03/16 04:54:04;;;;;;;6.07;4.33;;;;;;;4.13;78.64;99854.78;5152617;27;41597;-78
2022/03/16 04:56:31;;;;;;;6.30;4.37;;;;;;;4.10;78.58;99849.59;5154069;27;42213;-77
2022/03/16 04:59:00;;;;;;;4.30;3.43;;;;;;;4.08;78.72;99846.16;5152924;27;38805;-77
2022/03/16 05:01:28;;;;;;;4.50;3.87;;;;;;;4.07;78.73;99850.53;5152510;27;40735;-78
2022/03/16 05:03:55;;;;;;;5.03;4.33;;;;;;;3.92;78.44;99830.75;5134476;27;43131;-78
2022/03/16 05:06:23;;;;;;;4.77;4.10;;;;;;;4.05;78.62;99854.94;5154112;27;43177;-78
2022/03/16 05:08:51;;;;;;;4.17;3.77;;;;;;;3.88;79.06;99839.56;5153728;27;40150;-77
2022/03/16 05:11:21;;;;;;;4.67;3.93;;;;;;;3.95;79.00;99856.03;5135224;27;40713;-77
2022/03/16 05:13:48;;;;;;;5.07;4.53;;;;;;;3.94;79.02;99852.53;5152254;27;43834;-78
2022/03/16 05:16:18;;;;;;;5.63;4.73;;;;;;;3.90;78.80;99852.63;5154103;27;42776;-78
2022/03/16 05:18:45;;;;;;;4.83;4.33;;;;;;;3.81;78.81;99847.56;5152121;27;42040;-79
2022/03/16 05:21:14;;;;;;;4.53;3.73;;;;;;;3.81;78.89;99852.81;5134586;27;40750;-77
2022/03/16 05:23:42;;;;;;;5.37;4.40;;;;;;;3.75;78.61;99845.91;5154352;27;41616;-77
2022/03/16 05:26:09;;;;;;;5.60;4.40;;;;;;;3.83;78.74;99862.34;5137832;27;42626;-77
2022/03/16 05:28:37;;;;;;;5.00;4.00;;;;;;;3.71;78.59;99846.84;5139039;27;41050;-77
2022/03/16 05:31:04;;;;;;;5.33;4.50;;;;;;;3.78;78.92;99869.44;5154414;27;41647;-78
2022/03/16 05:33:34;;;;;;;5.67;4.60;;;;;;;3.76;78.86;99879.09;5158116;27;43925;-78
2022/03/16 05:36:02;;;;;;;5.30;4.47;;;;;;;3.72;78.72;99880.03;5157374;27;43165;-78
2022/03/16 05:38:30;;;;;;;5.73;4.90;;;;;;;3.71;78.67;99887.94;5137379;27;41696;-78
2022/03/16 05:40:57;;;;;;;5.40;4.13;;;;;;;3.68;78.53;99888.84;5118151;27;40391;-77
2022/03/16 05:43:25;;;;;;;4.70;4.10;;;;;;;3.67;78.60;99886.25;5151103;27;42041;-79
2022/03/16 05:45:53;;;;;;;4.80;4.10;;;;;;;3.67;78.51;99886.25;5115534;27;42872;-78
2022/03/16 05:48:20;;;;;;;4.17;3.77;;;;;;;3.68;78.53;99886.22;5133866;27;38801;-78
2022/03/16 05:50:50;;;;;;;4.83;4.33;;;;;;;3.67;78.28;99878.41;5133993;27;42703;-79
2022/03/16 05:53:17;;;;;;;4.30;3.90;;;;;;;3.65;78.52;99878.44;5134068;27;43061;-78
2022/03/16 05:55:45;;;;;;;4.37;3.63;;;;;;;3.67;78.27;99881.88;5152503;27;42458;-77
2022/03/16 05:58:12;;;;;;;6.13;4.90;;;;;;;3.67;78.34;99881.88;5115854;27;38919;-78
2022/03/16 06:00:42;;;;;;;4.83;4.23;;;;;;;3.68;78.02;99888.84;5115745;27;40785;-78
2022/03/16 06:03:11;;;;;;;5.73;4.43;;;;;;;3.66;78.16;99890.63;5133725;27;43027;-78
2022/03/16 06:05:38;;;;;;;5.97;4.47;;;;;;;3.71;78.07;99893.19;5134187;27;41215;-79
2022/03/16 06:08:08;;;;;;;5.00;4.30;;;;;;;3.75;78.02;99897.44;5117163;27;38961;-78
2022/03/16 06:10:35;;;;;;;6.70;5.17;;;;;;;3.69;77.71;99880.09;5134063;27;41716;-78
2022/03/16 06:13:05;;;;;;;4.47;3.80;;;;;;;3.86;77.95;99898.97;5116705;27;44493;-78
2022/03/16 06:15:39;;;;;;;6.67;4.80;;;;;;;3.92;77.66;99898.88;5132602;27;41377;-78
2022/03/16 06:18:07;;;;;;;5.97;4.30;;;;;;;3.98;77.79;99898.75;5149697;27;40945;-78
2022/03/16 06:20:36;;;;;;;5.17;4.33;;;;;;;3.73;77.64;99842.47;5116929;27;41607;-78
2022/03/16 06:23:05;;;;;;;6.03;4.27;;;;;;;4.16;77.75;99902.78;5116508;27;42022;-78
2022/03/16 06:25:35;;;;;;;5.93;4.60;;;;;;;4.24;77.88;99902.63;5168767;27;43141;-78
2022/03/16 06:28:03;;;;;;;7.30;4.67;;;;;;;4.32;77.72;99898.09;5124680;27;40423;-78
2022/03/16 06:30:32;;;;;;;5.13;4.20;;;;;;;4.41;77.49;99911.00;5126720;27;43294;-78
2022/03/16 06:32:59;;;;;;;6.97;4.93;;;;;;;4.49;77.17;99911.69;5133619;27;41788;-78
2022/03/16 06:35:27;;;;;;;11.10;6.20;;;;;;;4.58;77.78;99916.75;5150974;27;42761;-78
2022/03/16 06:37:55;;;;;;;7.87;6.40;;;;;;;4.57;77.46;99908.94;5115443;27;40119;-78
2022/03/16 06:40:22;;;;;;;8.07;5.97;;;;;;;4.76;77.32;99919.88;5131711;27;42635;-78
2022/03/16 06:42:53;;;;;;;5.93;5.07;;;;;;;4.80;77.20;99916.31;5125079;27;44262;-79
2022/03/16 06:45:22;;;;;;;6.63;4.80;;;;;;;4.90;76.94;99923.06;5113501;27;41624;-78
2022/03/16 06:47:56;;;;;;;6.37;5.27;;;;;;;4.98;77.09;99910.63;5148935;27;40590;-78
2022/03/16 06:50:24;;;;;;;7.57;5.10;;;;;;;5.05;76.82;99917.47;5116975;27;41933;-78
2022/03/16 06:52:57;;;;;;;6.57;5.77;;;;;;;5.12;76.68;99915.56;5134349;27;44729;-79
2022/03/16 06:55:26;;;;;;;6.50;5.67;;;;;;;5.28;76.62;99925.66;5152113;27;43412;-79
2022/03/16 06:57:56;;;;;;;5.60;4.70;;;;;;;5.37;76.12;99929.84;5130433;27;38757;-82
2022/03/16 07:00:23;;;;;;;6.77;5.00;;;;;;;5.43;76.20;99929.69;5133170;27;42629;-80
2022/03/16 07:02:53;;;;;;;5.27;4.43;;;;;;;5.49;76.09;99929.53;5139009;27;44174;-80
2022/03/16 07:05:21;;;;;;;6.33;4.97;;;;;;;5.56;75.45;99935.50;5134926;27;43567;-81
2022/03/16 07:07:56;;;;;;;5.70;4.90;;;;;;;5.59;75.53;99930.16;5133934;27;40851;-82
2022/03/16 07:10:24;;;;;;;6.80;4.83;;;;;;;5.62;75.47;99930.09;5161951;27;40926;-81
2022/03/16 07:12:51;;;;;;;4.97;4.47;;;;;;;5.86;75.31;99947.00;5154837;27;43676;-81
2022/03/16 07:15:22;;;;;;;7.27;5.23;;;;;;;5.98;74.73;99955.47;5137303;27;42508;-83
2022/03/16 07:17:49;;;;;;;6.37;5.13;;;;;;;6.05;74.80;99950.91;5156953;27;39875;-83
2022/03/16 07:20:17;;;;;;;5.07;4.47;;;;;;;6.25;74.64;99963.50;5136887;27;41043;-83
2022/03/16 07:22:45;;;;;;;7.17;5.40;;;;;;;6.31;74.02;99953.66;5120411;27;41469;-82
2022/03/16 07:25:13;;;;;;;6.37;4.83;;;;;;;6.45;74.05;99967.31;5136438;27;41571;-80
2022/03/16 07:27:41;;;;;;;7.17;6.03;;;;;;;6.48;73.51;99972.50;5140485;27;38638;-80
2022/03/16 07:30:11;;;;;;;6.13;5.20;;;;;;;6.44;73.26;99964.72;5138947;27;40727;-80
2022/03/16 07:32:40;;;;;;;6.90;5.47;;;;;;;6.55;73.34;99967.94;5119497;27;43423;-83
2022/03/16 07:35:10;;;;;;;6.93;5.30;;;;;;;6.28;72.99;99916.94;5132191;27;42336;-81
2022/03/16 07:37:38;;;;;;;5.90;5.27;;;;;;;6.72;73.09;99972.69;5153285;27;39008;-80
2022/03/16 07:43:10;;;;;;;7.53;6.10;;;;;;;6.83;72.65;99953.03;5065076;28;42437;-83
2022/03/16 07:45:38;;;;;;;6.87;5.57;;;;;;;6.75;72.78;99902.41;5093676;28;42553;-82
2022/03/16 07:48:07;;;;;;;5.80;5.07;;;;;;;7.34;71.83;99954.13;5094623;28;40082;-83
2022/03/16 07:50:35;;;;;;;6.40;5.53;;;;;;;7.52;71.69;99964.09;5077525;28;40611;-85
2022/03/16 07:53:03;;;;;;;6.37;5.10;;;;;;;7.76;71.40;99962.41;5111478;28;42719;-81
2022/03/16 07:55:32;;;;;;;6.10;5.13;;;;;;;8.02;70.83;99937.81;5111426;28;42184;-86
2022/03/16 07:58:01;;;;;;;5.63;4.50;;;;;;;8.44;69.92;99945.97;5077346;28;39903;-82
2022/03/16 08:00:29;;;;;;;6.80;5.67;;;;;;;8.91;69.40;99962.69;5073781;28;41771;-82
2022/03/16 08:02:59;;;;;;;6.73;5.40;;;;;;;9.22;68.55;99963.25;5073362;28;42472;-80
2022/03/16 08:05:29;;;;;;;5.67;4.70;;;;;;;9.46;68.44;99969.34;5093556;28;42789;-80
2022/03/16 08:07:57;;;;;;;6.90;5.53;;;;;;;9.69;67.51;99969.25;5111068;27;39885;-83
2022/03/16 08:10:24;;;;;;;5.93;5.03;;;;;;;9.88;66.69;99979.09;5075478;28;41864;-85
2022/03/16 08:13:10;;;;;;;6.47;5.40;;;;;;;10.07;65.29;99980.03;5077149;28;41663;-86
2022/03/16 08:15:52;;;;;;;7.20;5.03;;;;;;;10.33;64.87;99977.16;5105499;27;41251;-84
2022/03/16 08:18:23;;;;;;;6.90;6.13;;;;;;;10.91;64.13;99985.13;5134373;27;38778;-83
2022/03/16 08:21:00;;;;;;;6.27;5.50;;;;;;;11.19;64.07;99930.84;5119408;27;40882;-82
2022/03/16 08:23:29;;;;;;;7.00;5.63;;;;;;;12.08;63.18;99946.75;5118433;27;43099;-80
2022/03/16 08:25:57;;;;;;;7.37;6.40;;;;;;;13.07;59.28;99976.88;5118877;27;42261;-80
2022/03/16 08:28:25;;;;;;;7.50;6.17;;;;;;;14.23;57.32;99988.88;5135477;27;41144;-82
2022/03/16 08:30:52;;;;;;;7.70;6.60;;;;;;;15.32;54.87;99957.25;5136095;27;40671;-81
2022/03/16 08:33:22;;;;;;;6.43;5.83;;;;;;;16.83;51.75;100029.00;5154218;27;42758;-82
2022/03/16 08:35:49;;;;;;;7.70;6.73;;;;;;;17.71;49.65;100015.63;5135696;27;42387;-84
2022/03/16 08:38:36;;;;;;;6.40;5.57;;;;;;;17.65;48.59;100008.03;5135442;27;40688;-85
2022/03/16 08:41:12;;;;;;;6.50;5.67;;;;;;;18.50;46.99;100041.84;5115477;27;42153;-86
2022/03/16 08:43:39;;;;;;;7.57;6.47;;;;;;;19.53;46.11;100033.72;5137224;27;43973;-83
2022/03/16 08:46:07;;;;;;;7.37;6.67;;;;;;;20.65;43.10;100023.44;5151656;27;41684;-82
2022/03/16 08:48:35;;;;;;;6.20;5.70;;;;;;;22.21;41.53;100040.13;5118177;27;41578;-82
2022/03/16 08:51:04;;;;;;;7.17;6.57;;;;;;;23.29;38.92;100040.69;5117548;27;40866;-82
2022/03/16 08:53:34;;;;;;;6.73;6.13;;;;;;;24.10;36.70;100046.28;5134928;27;42696;-82
2022/03/16 08:56:02;;;;;;;6.73;6.03;;;;;;;24.63;35.72;100055.25;5136088;27;43436;-85
2022/03/16 08:58:30;;;;;;;7.07;6.37;;;;;;;24.87;35.45;100053.75;5118107;27;39729;-82
2022/03/16 09:03:38;;;;;;;6.10;5.60;;;;;;;25.37;34.52;100067.50;5124857;27;42013;-83
2022/03/16 09:06:06;;;;;;;6.43;5.83;;;;;;;24.59;34.72;100021.38;5138036;27;42399;-81
2022/03/16 09:08:35;;;;;;;7.37;6.63;;;;;;;24.00;35.24;100051.72;5169975;27;40416;-79
2022/03/16 09:11:03;;;;;;;7.73;7.00;;;;;;;23.57;36.32;100042.44;5135168;27;42832;-83
2022/03/16 09:13:33;;;;;;;7.50;6.80;;;;;;;23.44;35.96;100043.75;5152080;27;45208;-82
2022/03/16 09:16:01;;;;;;;6.67;6.07;;;;;;;23.63;36.36;100054.50;5150627;27;42477;-80
2022/03/16 09:18:29;;;;;;;7.50;6.80;;;;;;;23.87;35.43;100062.91;5151616;27;41498;-82
2022/03/16 09:20:57;;;;;;;7.07;6.47;;;;;;;23.88;35.47;100061.91;5117291;27;40650;-82
2022/03/16 09:23:24;;;;;;;7.17;6.47;;;;;;;23.70;36.27;100036.69;5152903;27;42503;-82
2022/03/16 09:25:54;;;;;;;7.03;6.33;;;;;;;24.17;35.07;100053.63;5153847;27;42389;-84
2022/03/16 09:28:22;;;;;;;6.50;5.90;;;;;;;24.13;35.49;100029.69;5117246;27;38802;-83
2022/03/16 09:30:50;;;;;;;6.87;6.20;;;;;;;24.11;35.27;100035.25;5134864;27;41771;-83
2022/03/16 09:33:22;;;;;;;8.30;7.30;;;;;;;24.09;34.53;100060.81;5117002;27;44851;-81
2022/03/16 09:35:57;;;;;;;7.33;6.63;;;;;;;23.98;33.59;100078.94;5111802;27;42366;-81
2022/03/16 09:38:25;;;;;;;7.60;6.77;;;;;;;23.81;33.42;100073.50;5151084;27;42692;-80
2022/03/16 09:40:57;;;;;;;10.60;7.63;;;;;;;23.56;34.93;100067.78;5149744;27;41243;-80
2022/03/16 09:43:24;;;;;;;8.30;6.97;;;;;;;23.74;34.92;100067.00;5153449;27;42604;-78
2022/03/16 09:45:56;;;;;;;7.70;7.00;;;;;;;23.68;33.36;100063.03;5134497;27;41424;-81
2022/03/16 09:48:25;;;;;;;8.13;7.33;;;;;;;23.29;33.61;100068.56;5131594;27;40988;-81
2022/03/16 09:50:54;;;;;;;9.07;7.73;;;;;;;23.28;34.20;100061.44;5117757;27;40450;-80
2022/03/16 09:53:22;;;;;;;11.00;7.07;;;;;;;23.28;34.70;100055.19;5134346;27;43044;-80
2022/03/16 09:55:52;;;;;;;9.70;8.30;;;;;;;23.07;33.94;100052.72;5122309;27;42752;-80
2022/03/16 09:58:21;;;;;;;9.60;8.63;;;;;;;22.95;34.88;100034.97;5133955;27;38909;-79
2022/03/16 10:00:49;;;;;;;9.43;8.43;;;;;;;22.72;35.21;100037.13;5153043;27;41773;-83
2022/03/16 10:03:17;;;;;;;9.60;7.73;;;;;;;22.48;35.38;100042.13;5134562;27;43675;-81
2022/03/16 10:05:48;;;;;;;9.03;7.67;;;;;;;22.27;36.16;100015.25;5149671;27;42576;-82
2022/03/16 10:08:26;;;;;;;8.83;7.93;;;;;;;22.55;36.50;100027.03;5149643;27;40747;-81
2022/03/16 10:14:11;;;;;;;7.53;6.77;;;;;;;24.21;33.82;100037.94;5156195;27;42162;-82
2022/03/16 10:19:51;;;;;;;9.70;8.03;;;;;;;24.64;31.68;100050.69;5146039;27;39134;-82
2022/03/16 10:22:26;;;;;;;8.37;7.00;;;;;;;24.47;32.38;100011.81;5115846;27;42395;-81
2022/03/16 10:25:00;;;;;;;9.10;8.20;;;;;;;25.29;31.52;100040.34;5151978;27;42990;-81
2022/03/16 10:27:28;;;;;;;8.83;8.03;;;;;;;25.60;31.85;100027.06;5116507;27;42607;-82
2022/03/16 10:29:58;;;;;;;9.03;8.13;;;;;;;25.75;29.80;100052.63;5133456;27;41270;-78
2022/03/16 10:32:45;;;;;;;8.37;7.57;;;;;;;25.62;30.77;100022.38;5133254;27;40629;-83
2022/03/16 10:35:13;;;;;;;9.77;8.77;;;;;;;24.80;30.34;100007.47;5130895;27;42817;-80
2022/03/16 10:37:48;;;;;;;11.03;8.83;;;;;;;24.90;31.34;100023.63;5133846;27;42330;-83
2022/03/16 10:40:19;;;;;;;9.33;8.17;;;;;;;24.76;31.32;100016.06;5118250;27;40102;-80
2022/03/16 10:48:24;;;;;;;7.87;7.17;;;;;;;26.15;31.21;100004.88;5149566;27;43190;-80
2022/03/16 10:50:57;;;;;;;8.23;7.43;;;;;;;26.34;29.44;100016.28;5152244;27;40169;-81
2022/03/16 10:53:29;;;;;;;10.03;9.00;;;;;;;26.09;29.57;100001.81;5115764;27;41305;-80
2022/03/16 11:05:06;;;;;;;9.23;8.10;;;;;;;24.62;30.25;100004.78;5111605;27;40878;-85
2022/03/16 11:07:36;;;;;;;9.37;8.37;;;;;;;23.72;31.53;99999.53;5096073;27;43578;-77
2022/03/16 11:10:05;;;;;;;9.87;8.20;;;;;;;24.19;31.28;99991.19;5129937;27;42816;-78
2022/03/16 11:15:23;;;;;;;9.10;8.20;;;;;;;25.77;29.10;99990.88;5149562;27;42383;-83
2022/03/16 11:17:52;;;;;;;10.10;8.07;;;;;;;26.62;28.92;99992.34;5130752;27;43736;-82
2022/03/16 11:20:21;;;;;;;9.43;8.63;;;;;;;27.45;27.60;99998.28;5114858;27;42290;-83
2022/03/16 11:25:51;;;;;;;8.10;7.30;;;;;;;30.12;25.72;99994.16;5169115;27;41708;-82
2022/03/16 11:28:43;;;;;;;9.97;8.97;;;;;;;31.73;22.55;100021.53;5138338;27;42534;-84
2022/03/16 11:31:39;;;;;;;9.37;8.40;;;;;;;33.00;21.38;100014.22;5116279;27;43979;-82
2022/03/16 11:34:27;;;;;;;9.98;8.98;;;;;;;33.72;20.10;100015.94;5123951;27;40249;-81
2022/03/16 11:37:02;;;;;;;9.00;8.20;;;;;;;33.51;20.13;100005.22;5133433;27;42240;-83
2022/03/16 11:39:43;;;;;;;10.77;9.77;;;;;;;32.67;20.34;100008.69;5129029;27;42548;-80
2022/03/16 11:42:13;;;;;;;9.50;8.70;;;;;;;33.17;20.33;100009.09;5095508;27;42945;-81
2022/03/16 11:44:47;;;;;;;8.17;7.47;;;;;;;31.12;21.56;99980.34;5137351;27;39920;-81
2022/03/16 11:47:36;;;;;;;8.77;7.97;;;;;;;30.50;23.12;99974.75;5139531;27;40847;-80
2022/03/16 11:50:13;;;;;;;9.27;8.47;;;;;;;29.72;23.74;99948.28;5118576;27;42331;-81
2022/03/16 11:53:04;;;;;;;9.50;8.40;;;;;;;29.39;24.36;99956.09;5119684;27;42490;-79
2022/03/16 11:55:43;;;;;;;9.53;8.63;;;;;;;29.07;24.55;99966.31;5144673;27;40101;-81
2022/03/16 11:58:25;;;;;;;9.13;8.33;;;;;;;28.63;24.35;99958.06;5118428;27;40845;-81
2022/03/16 12:01:09;;;;;;;9.83;8.83;;;;;;;30.14;23.01;99969.38;5126850;27;41485;-83
2022/03/16 12:03:45;;;;;;;8.73;7.80;;;;;;;31.51;22.55;99952.31;5123696;27;41362;-80
2022/03/16 12:06:20;;;;;;;8.03;7.33;;;;;;;32.76;21.20;99954.50;5136133;27;40854;-78
2022/03/16 12:08:52;;;;;;;9.53;8.73;;;;;;;33.53;20.96;99959.16;5118258;27;40646;-79
2022/03/16 12:14:20;;;;;;;9.57;8.67;;;;;;;33.73;20.43;99964.59;5143031;27;41787;-78
2022/03/16 12:16:47;;;;;;;10.33;9.37;;;;;;;33.62;20.25;99963.38;5125476;27;40908;-77
2022/03/16 12:19:29;;;;;;;8.93;8.13;;;;;;;33.10;21.04;99959.72;5133349;27;42233;-79
2022/03/16 12:22:34;;;;;;;10.93;9.83;;;;;;;32.52;20.45;99922.22;5118996;27;42514;-83
2022/03/16 12:25:28;;;;;;;11.07;10.03;;;;;;;33.14;19.50;99944.47;5118226;27;42967;-84